sensor_id;sensor_type;location;lat;lon;timestamp;P1;durP1;ratioP1;P2;durP2;ratioP2
2031;SDS011;27625;50.422;7.944;2023-03-26T00:02:38;9.63;;;2.90;;
2031;SDS011;27625;50.422;7.944;2023-03-26T00:05:11;10.80;;;3.33;;
2031;SDS011;27625;50.422;7.944;2023-03-26T00:07:39;9.87;;;3.10;;
2031;SDS011;27625;50.422;7.944;2023-03-26T00:10:06;8.40;;;3.53;;
2031;SDS011;27625;50.422;7.944;2023-03-26T00:12:34;11.30;;;3.87;;
2031;SDS011;27625;50.422;7.944;2023-03-26T00:15:05;7.70;;;3.10;;
2031;SDS011;27625;50.422;7.944;2023-03-26T00:17:34;16.60;;;3.47;;
2031;SDS011;27625;50.422;7.944;2023-03-26T00:20:07;6.80;;;2.67;;
2031;SDS011;27625;50.422;7.944;2023-03-26T00:22:38;9.43;;;3.10;;
2031;SDS011;27625;50.422;7.944;2023-03-26T00:25:06;9.47;;;2.77;;
2031;SDS011;27625;50.422;7.944;2023-03-26T00:27:39;11.33;;;2.80;;
2031;SDS011;27625;50.422;7.944;2023-03-26T00:30:06;11.33;;;3.50;;
2031;SDS011;27625;50.422;7.944;2023-03-26T00:32:34;9.83;;;2.93;;
2031;SDS011;27625;50.422;7.944;2023-03-26T00:35:03;9.13;;;3.20;;
2031;SDS011;27625;50.422;7.944;2023-03-26T00:37:31;9.60;;;3.10;;
2031;SDS011;27625;50.422;7.944;2023-03-26T00:39:58;11.63;;;3.33;;
2031;SDS011;27625;50.422;7.944;2023-03-26T00:42:31;13.43;;;3.50;;
2031;SDS011;27625;50.422;7.944;2023-03-26T00:44:58;7.60;;;2.67;;
2031;SDS011;27625;50.422;7.944;2023-03-26T00:47:31;5.00;;;3.10;;
2031;SDS011;27625;50.422;7.944;2023-03-26T00:50:02;7.53;;;3.07;;
2031;SDS011;27625;50.422;7.944;2023-03-26T00:52:31;8.87;;;3.07;;
2031;SDS011;27625;50.422;7.944;2023-03-26T00:55:00;13.07;;;3.17;;
2031;SDS011;27625;50.422;7.944;2023-03-26T00:57:35;12.77;;;3.47;;
2031;SDS011;27625;50.422;7.944;2023-03-26T01:00:03;15.33;;;3.50;;
2031;SDS011;27625;50.422;7.944;2023-03-26T01:02:41;9.03;;;3.10;;
2031;SDS011;27625;50.422;7.944;2023-03-26T01:08:12;9.60;;;2.60;;
2031;SDS011;27625;50.422;7.944;2023-03-26T01:10:49;9.57;;;2.87;;
2031;SDS011;27625;50.422;7.944;2023-03-26T01:13:17;10.77;;;3.73;;
2031;SDS011;27625;50.422;7.944;2023-03-26T01:15:48;6.57;;;3.00;;
2031;SDS011;27625;50.422;7.944;2023-03-26T01:18:18;8.13;;;2.97;;
2031;SDS011;27625;50.422;7.944;2023-03-26T01:20:51;10.13;;;3.60;;
2031;SDS011;27625;50.422;7.944;2023-03-26T01:23:36;8.50;;;3.90;;
2031;SDS011;27625;50.422;7.944;2023-03-26T01:26:09;11.10;;;3.00;;
2031;SDS011;27625;50.422;7.944;2023-03-26T01:28:46;7.60;;;2.90;;
2031;SDS011;27625;50.422;7.944;2023-03-26T01:31:23;9.80;;;2.90;;
2031;SDS011;27625;50.422;7.944;2023-03-26T01:34:02;7.70;;;3.13;;
2031;SDS011;27625;50.422;7.944;2023-03-26T01:36:39;10.90;;;3.17;;
2031;SDS011;27625;50.422;7.944;2023-03-26T01:39:13;14.80;;;3.70;;
2031;SDS011;27625;50.422;7.944;2023-03-26T01:41:45;8.23;;;3.20;;
2031;SDS011;27625;50.422;7.944;2023-03-26T01:44:16;10.87;;;3.03;;
2031;SDS011;27625;50.422;7.944;2023-03-26T01:46:54;11.10;;;3.63;;
2031;SDS011;27625;50.422;7.944;2023-03-26T01:49:27;8.07;;;2.90;;
2031;SDS011;27625;50.422;7.944;2023-03-26T01:51:55;7.10;;;2.73;;
2031;SDS011;27625;50.422;7.944;2023-03-26T01:54:23;10.60;;;2.87;;
2031;SDS011;27625;50.422;7.944;2023-03-26T01:57:04;11.20;;;3.30;;
2031;SDS011;27625;50.422;7.944;2023-03-26T01:59:53;8.37;;;2.90;;
2031;SDS011;27625;50.422;7.944;2023-03-26T02:02:25;8.53;;;3.10;;
2031;SDS011;27625;50.422;7.944;2023-03-26T02:04:59;8.87;;;2.87;;
2031;SDS011;27625;50.422;7.944;2023-03-26T02:07:33;8.17;;;3.90;;
2031;SDS011;27625;50.422;7.944;2023-03-26T02:10:07;13.07;;;2.80;;
2031;SDS011;27625;50.422;7.944;2023-03-26T02:12:39;13.57;;;3.20;;
2031;SDS011;27625;50.422;7.944;2023-03-26T02:15:08;10.47;;;3.03;;
2031;SDS011;27625;50.422;7.944;2023-03-26T02:17:36;6.37;;;2.77;;
2031;SDS011;27625;50.422;7.944;2023-03-26T02:20:05;9.43;;;3.00;;
2031;SDS011;27625;50.422;7.944;2023-03-26T02:22:43;12.43;;;3.40;;
2031;SDS011;27625;50.422;7.944;2023-03-26T02:25:14;10.73;;;3.00;;
2031;SDS011;27625;50.422;7.944;2023-03-26T02:27:43;11.50;;;2.90;;
2031;SDS011;27625;50.422;7.944;2023-03-26T02:30:11;8.70;;;2.73;;
2031;SDS011;27625;50.422;7.944;2023-03-26T02:32:42;6.73;;;2.83;;
2031;SDS011;27625;50.422;7.944;2023-03-26T02:35:09;6.10;;;2.87;;
2031;SDS011;27625;50.422;7.944;2023-03-26T02:37:38;9.73;;;2.73;;
2031;SDS011;27625;50.422;7.944;2023-03-26T02:40:24;7.90;;;3.33;;
2031;SDS011;27625;50.422;7.944;2023-03-26T02:42:52;8.77;;;3.10;;
2031;SDS011;27625;50.422;7.944;2023-03-26T02:45:21;7.50;;;3.10;;
2031;SDS011;27625;50.422;7.944;2023-03-26T02:48:13;10.93;;;3.70;;
2031;SDS011;27625;50.422;7.944;2023-03-26T02:50:41;6.50;;;2.77;;
2031;SDS011;27625;50.422;7.944;2023-03-26T02:53:33;8.77;;;3.63;;
2031;SDS011;27625;50.422;7.944;2023-03-26T02:56:27;11.03;;;3.07;;
2031;SDS011;27625;50.422;7.944;2023-03-26T02:59:16;12.30;;;3.80;;
2031;SDS011;27625;50.422;7.944;2023-03-26T03:01:46;13.17;;;3.60;;
2031;SDS011;27625;50.422;7.944;2023-03-26T03:04:19;9.20;;;3.10;;
2031;SDS011;27625;50.422;7.944;2023-03-26T03:06:48;12.30;;;3.53;;
2031;SDS011;27625;50.422;7.944;2023-03-26T03:09:31;12.53;;;5.73;;
2031;SDS011;27625;50.422;7.944;2023-03-26T03:12:27;11.23;;;4.27;;
2031;SDS011;27625;50.422;7.944;2023-03-26T03:15:03;9.03;;;3.73;;
2031;SDS011;27625;50.422;7.944;2023-03-26T03:17:37;9.27;;;3.47;;
2031;SDS011;27625;50.422;7.944;2023-03-26T03:20:07;11.77;;;3.57;;
2031;SDS011;27625;50.422;7.944;2023-03-26T03:22:43;8.57;;;2.97;;
2031;SDS011;27625;50.422;7.944;2023-03-26T03:25:17;11.10;;;2.90;;
2031;SDS011;27625;50.422;7.944;2023-03-26T03:27:48;9.00;;;3.60;;
2031;SDS011;27625;50.422;7.944;2023-03-26T03:30:24;16.33;;;3.73;;
2031;SDS011;27625;50.422;7.944;2023-03-26T03:33:08;9.37;;;3.03;;
2031;SDS011;27625;50.422;7.944;2023-03-26T03:35:34;16.67;;;3.50;;
2031;SDS011;27625;50.422;7.944;2023-03-26T03:38:04;11.23;;;3.67;;
2031;SDS011;27625;50.422;7.944;2023-03-26T03:40:43;10.87;;;4.37;;
2031;SDS011;27625;50.422;7.944;2023-03-26T03:43:09;10.10;;;3.57;;
2031;SDS011;27625;50.422;7.944;2023-03-26T03:45:50;9.27;;;3.30;;
2031;SDS011;27625;50.422;7.944;2023-03-26T03:48:30;14.90;;;3.30;;
2031;SDS011;27625;50.422;7.944;2023-03-26T03:51:02;9.67;;;2.83;;
2031;SDS011;27625;50.422;7.944;2023-03-26T03:53:46;11.00;;;3.53;;
2031;SDS011;27625;50.422;7.944;2023-03-26T03:56:19;7.73;;;2.37;;
2031;SDS011;27625;50.422;7.944;2023-03-26T03:59:28;12.90;;;2.70;;
2031;SDS011;27625;50.422;7.944;2023-03-26T04:02:02;8.37;;;2.70;;
2031;SDS011;27625;50.422;7.944;2023-03-26T04:04:34;14.87;;;4.33;;
2031;SDS011;27625;50.422;7.944;2023-03-26T04:07:05;10.40;;;3.20;;
2031;SDS011;27625;50.422;7.944;2023-03-26T04:10:00;9.57;;;3.07;;
2031;SDS011;27625;50.422;7.944;2023-03-26T04:12:45;10.33;;;3.03;;
2031;SDS011;27625;50.422;7.944;2023-03-26T04:15:15;3.50;;;2.23;;
2031;SDS011;27625;50.422;7.944;2023-03-26T04:17:44;7.80;;;2.80;;
2031;SDS011;27625;50.422;7.944;2023-03-26T04:20:13;11.03;;;3.57;;
2031;SDS011;27625;50.422;7.944;2023-03-26T04:22:43;8.63;;;2.57;;
2031;SDS011;27625;50.422;7.944;2023-03-26T04:27:53;8.93;;;2.40;;
2031;SDS011;27625;50.422;7.944;2023-03-26T04:30:50;7.97;;;3.30;;
2031;SDS011;27625;50.422;7.944;2023-03-26T04:33:30;11.93;;;3.00;;
2031;SDS011;27625;50.422;7.944;2023-03-26T04:36:02;6.50;;;3.60;;
2031;SDS011;27625;50.422;7.944;2023-03-26T04:38:32;12.37;;;3.60;;
2031;SDS011;27625;50.422;7.944;2023-03-26T04:41:03;10.07;;;3.10;;
2031;SDS011;27625;50.422;7.944;2023-03-26T04:43:46;13.10;;;3.30;;
2031;SDS011;27625;50.422;7.944;2023-03-26T04:46:40;10.77;;;3.30;;
2031;SDS011;27625;50.422;7.944;2023-03-26T04:49:25;10.20;;;3.00;;
2031;SDS011;27625;50.422;7.944;2023-03-26T04:52:03;9.73;;;2.83;;
2031;SDS011;27625;50.422;7.944;2023-03-26T04:54:59;12.50;;;3.80;;
2031;SDS011;27625;50.422;7.944;2023-03-26T04:57:36;8.67;;;2.73;;
2031;SDS011;27625;50.422;7.944;2023-03-26T05:00:13;13.33;;;2.90;;
2031;SDS011;27625;50.422;7.944;2023-03-26T05:02:42;9.43;;;3.40;;
2031;SDS011;27625;50.422;7.944;2023-03-26T05:05:13;7.93;;;3.40;;
2031;SDS011;27625;50.422;7.944;2023-03-26T05:07:41;13.20;;;2.80;;
2031;SDS011;27625;50.422;7.944;2023-03-26T05:10:13;9.63;;;3.10;;
2031;SDS011;27625;50.422;7.944;2023-03-26T05:13:08;9.47;;;3.23;;
2031;SDS011;27625;50.422;7.944;2023-03-26T05:18:44;6.73;;;2.90;;
2031;SDS011;27625;50.422;7.944;2023-03-26T05:21:19;10.90;;;3.73;;
2031;SDS011;27625;50.422;7.944;2023-03-26T05:23:52;9.37;;;3.40;;
2031;SDS011;27625;50.422;7.944;2023-03-26T05:26:22;9.97;;;3.63;;
2031;SDS011;27625;50.422;7.944;2023-03-26T05:28:54;10.23;;;3.57;;
2031;SDS011;27625;50.422;7.944;2023-03-26T05:31:25;14.33;;;3.57;;
2031;SDS011;27625;50.422;7.944;2023-03-26T05:33:58;8.90;;;3.40;;
2031;SDS011;27625;50.422;7.944;2023-03-26T05:36:28;15.97;;;5.40;;
2031;SDS011;27625;50.422;7.944;2023-03-26T05:39:19;10.00;;;3.10;;
2031;SDS011;27625;50.422;7.944;2023-03-26T05:42:15;9.83;;;3.20;;
2031;SDS011;27625;50.422;7.944;2023-03-26T05:45:04;8.10;;;2.90;;
2031;SDS011;27625;50.422;7.944;2023-03-26T05:47:32;5.33;;;2.33;;
2031;SDS011;27625;50.422;7.944;2023-03-26T05:50:03;9.53;;;3.23;;
2031;SDS011;27625;50.422;7.944;2023-03-26T05:52:41;8.23;;;3.77;;
2031;SDS011;27625;50.422;7.944;2023-03-26T05:55:39;9.20;;;3.60;;
2031;SDS011;27625;50.422;7.944;2023-03-26T05:58:28;11.77;;;3.70;;
2031;SDS011;27625;50.422;7.944;2023-03-26T06:01:05;12.57;;;3.87;;
2031;SDS011;27625;50.422;7.944;2023-03-26T06:04:02;11.00;;;3.23;;
2031;SDS011;27625;50.422;7.944;2023-03-26T06:06:35;6.13;;;2.83;;
2031;SDS011;27625;50.422;7.944;2023-03-26T06:11:36;8.13;;;2.70;;
2031;SDS011;27625;50.422;7.944;2023-03-26T06:16:39;8.30;;;3.13;;
2031;SDS011;27625;50.422;7.944;2023-03-26T06:19:23;7.63;;;3.37;;
2031;SDS011;27625;50.422;7.944;2023-03-26T06:21:58;9.80;;;3.70;;
2031;SDS011;27625;50.422;7.944;2023-03-26T06:24:33;11.90;;;4.40;;
2031;SDS011;27625;50.422;7.944;2023-03-26T06:27:21;12.47;;;3.27;;
2031;SDS011;27625;50.422;7.944;2023-03-26T06:29:47;11.50;;;4.30;;
2031;SDS011;27625;50.422;7.944;2023-03-26T06:32:35;10.50;;;4.30;;
2031;SDS011;27625;50.422;7.944;2023-03-26T06:35:07;7.90;;;3.50;;
2031;SDS011;27625;50.422;7.944;2023-03-26T06:37:34;8.90;;;3.60;;
2031;SDS011;27625;50.422;7.944;2023-03-26T06:40:05;13.13;;;3.40;;
2031;SDS011;27625;50.422;7.944;2023-03-26T06:42:58;9.53;;;3.07;;
2031;SDS011;27625;50.422;7.944;2023-03-26T06:45:58;11.23;;;3.47;;
2031;SDS011;27625;50.422;7.944;2023-03-26T06:48:34;8.30;;;3.60;;
2031;SDS011;27625;50.422;7.944;2023-03-26T06:51:15;15.60;;;3.80;;
2031;SDS011;27625;50.422;7.944;2023-03-26T06:54:11;13.10;;;3.67;;
2031;SDS011;27625;50.422;7.944;2023-03-26T06:56:55;9.90;;;2.93;;
2031;SDS011;27625;50.422;7.944;2023-03-26T06:59:55;8.67;;;3.63;;
2031;SDS011;27625;50.422;7.944;2023-03-26T07:02:40;8.03;;;3.50;;
2031;SDS011;27625;50.422;7.944;2023-03-26T07:05:26;11.67;;;4.20;;
2031;SDS011;27625;50.422;7.944;2023-03-26T07:08:24;11.33;;;3.40;;
2031;SDS011;27625;50.422;7.944;2023-03-26T07:11:11;12.23;;;3.70;;
2031;SDS011;27625;50.422;7.944;2023-03-26T07:13:55;16.20;;;4.33;;
2031;SDS011;27625;50.422;7.944;2023-03-26T07:16:43;16.17;;;4.23;;
2031;SDS011;27625;50.422;7.944;2023-03-26T07:19:12;13.47;;;4.27;;
2031;SDS011;27625;50.422;7.944;2023-03-26T07:21:40;8.33;;;3.20;;
2031;SDS011;27625;50.422;7.944;2023-03-26T07:24:24;11.10;;;4.17;;
2031;SDS011;27625;50.422;7.944;2023-03-26T07:27:09;7.47;;;3.50;;
2031;SDS011;27625;50.422;7.944;2023-03-26T07:29:43;9.80;;;4.43;;
2031;SDS011;27625;50.422;7.944;2023-03-26T07:32:33;8.53;;;4.00;;
2031;SDS011;27625;50.422;7.944;2023-03-26T07:35:28;13.10;;;3.93;;
2031;SDS011;27625;50.422;7.944;2023-03-26T07:38:22;13.80;;;4.10;;
2031;SDS011;27625;50.422;7.944;2023-03-26T07:41:08;14.63;;;4.70;;
2031;SDS011;27625;50.422;7.944;2023-03-26T07:44:03;12.37;;;4.47;;
2031;SDS011;27625;50.422;7.944;2023-03-26T07:47:25;9.80;;;4.60;;
2031;SDS011;27625;50.422;7.944;2023-03-26T07:50:13;11.70;;;6.20;;
2031;SDS011;27625;50.422;7.944;2023-03-26T07:53:01;8.93;;;4.27;;
2031;SDS011;27625;50.422;7.944;2023-03-26T07:55:56;9.70;;;4.90;;
2031;SDS011;27625;50.422;7.944;2023-03-26T07:58:53;6.73;;;3.93;;
2031;SDS011;27625;50.422;7.944;2023-03-26T08:01:45;10.10;;;4.40;;
2031;SDS011;27625;50.422;7.944;2023-03-26T08:08:04;13.17;;;4.23;;
2031;SDS011;27625;50.422;7.944;2023-03-26T08:10:54;7.10;;;3.80;;
2031;SDS011;27625;50.422;7.944;2023-03-26T08:13:35;7.40;;;3.30;;
2031;SDS011;27625;50.422;7.944;2023-03-26T08:16:06;7.87;;;3.60;;
2031;SDS011;27625;50.422;7.944;2023-03-26T08:18:40;8.30;;;3.60;;
2031;SDS011;27625;50.422;7.944;2023-03-26T08:21:12;6.80;;;3.73;;
2031;SDS011;27625;50.422;7.944;2023-03-26T08:23:49;7.17;;;3.70;;
2031;SDS011;27625;50.422;7.944;2023-03-26T08:26:25;9.43;;;4.13;;
2031;SDS011;27625;50.422;7.944;2023-03-26T08:28:58;8.37;;;3.30;;
2031;SDS011;27625;50.422;7.944;2023-03-26T08:31:30;11.20;;;3.50;;
2031;SDS011;27625;50.422;7.944;2023-03-26T08:34:00;8.90;;;3.90;;
2031;SDS011;27625;50.422;7.944;2023-03-26T08:36:28;5.63;;;3.63;;
2031;SDS011;27625;50.422;7.944;2023-03-26T08:38:57;7.07;;;3.77;;
2031;SDS011;27625;50.422;7.944;2023-03-26T08:41:36;9.73;;;3.80;;
2031;SDS011;27625;50.422;7.944;2023-03-26T08:56:48;13.03;;;4.47;;
2031;SDS011;27625;50.422;7.944;2023-03-26T09:02:31;8.73;;;5.47;;
2031;SDS011;27625;50.422;7.944;2023-03-26T09:20:47;9.97;;;5.47;;
2031;SDS011;27625;50.422;7.944;2023-03-26T09:23:27;7.70;;;5.60;;
2031;SDS011;27625;50.422;7.944;2023-03-26T09:26:10;11.20;;;6.10;;
2031;SDS011;27625;50.422;7.944;2023-03-26T09:34:36;9.40;;;6.10;;
2031;SDS011;27625;50.422;7.944;2023-03-26T09:37:23;9.43;;;5.80;;
2031;SDS011;27625;50.422;7.944;2023-03-26T09:40:00;12.50;;;5.60;;
2031;SDS011;27625;50.422;7.944;2023-03-26T09:42:40;10.50;;;5.83;;
2031;SDS011;27625;50.422;7.944;2023-03-26T09:45:24;9.17;;;4.90;;
2031;SDS011;27625;50.422;7.944;2023-03-26T09:48:22;9.13;;;5.10;;
2031;SDS011;27625;50.422;7.944;2023-03-26T09:51:04;17.23;;;5.37;;
2031;SDS011;27625;50.422;7.944;2023-03-26T09:56:53;9.77;;;4.90;;
2031;SDS011;27625;50.422;7.944;2023-03-26T09:59:37;7.00;;;4.13;;
2031;SDS011;27625;50.422;7.944;2023-03-26T10:02:16;7.63;;;4.30;;
2031;SDS011;27625;50.422;7.944;2023-03-26T10:05:18;7.33;;;4.33;;
2031;SDS011;27625;50.422;7.944;2023-03-26T10:07:56;5.93;;;3.53;;
2031;SDS011;27625;50.422;7.944;2023-03-26T10:10:52;5.80;;;3.30;;
2031;SDS011;27625;50.422;7.944;2023-03-26T10:13:25;6.70;;;3.43;;
2031;SDS011;27625;50.422;7.944;2023-03-26T10:16:14;6.43;;;3.60;;
2031;SDS011;27625;50.422;7.944;2023-03-26T10:18:48;6.53;;;3.10;;
2031;SDS011;27625;50.422;7.944;2023-03-26T10:21:33;5.50;;;2.77;;
2031;SDS011;27625;50.422;7.944;2023-03-26T10:27:19;4.97;;;2.60;;
2031;SDS011;27625;50.422;7.944;2023-03-26T10:33:06;5.70;;;2.50;;
2031;SDS011;27625;50.422;7.944;2023-03-26T10:35:58;8.50;;;2.80;;
2031;SDS011;27625;50.422;7.944;2023-03-26T10:38:48;5.27;;;2.23;;
2031;SDS011;27625;50.422;7.944;2023-03-26T10:41:24;8.03;;;3.10;;
2031;SDS011;27625;50.422;7.944;2023-03-26T10:50:04;5.30;;;2.80;;
2031;SDS011;27625;50.422;7.944;2023-03-26T10:52:45;5.20;;;2.50;;
2031;SDS011;27625;50.422;7.944;2023-03-26T10:55:19;3.03;;;1.87;;
2031;SDS011;27625;50.422;7.944;2023-03-26T10:57:51;3.53;;;1.90;;
2031;SDS011;27625;50.422;7.944;2023-03-26T11:00:19;2.90;;;1.83;;
2031;SDS011;27625;50.422;7.944;2023-03-26T11:05:50;9.40;;;6.87;;
2031;SDS011;27625;50.422;7.944;2023-03-26T11:08:27;4.90;;;3.37;;
2031;SDS011;27625;50.422;7.944;2023-03-26T11:11:02;3.27;;;1.80;;
2031;SDS011;27625;50.422;7.944;2023-03-26T11:13:43;5.10;;;1.90;;
2031;SDS011;27625;50.422;7.944;2023-03-26T11:16:15;3.70;;;1.50;;
2031;SDS011;27625;50.422;7.944;2023-03-26T11:18:47;5.40;;;2.17;;
2031;SDS011;27625;50.422;7.944;2023-03-26T11:21:21;5.50;;;1.73;;
2031;SDS011;27625;50.422;7.944;2023-03-26T11:23:54;4.83;;;2.30;;
2031;SDS011;27625;50.422;7.944;2023-03-26T11:26:37;3.30;;;2.33;;
2031;SDS011;27625;50.422;7.944;2023-03-26T11:29:15;3.60;;;2.30;;
2031;SDS011;27625;50.422;7.944;2023-03-26T11:31:51;3.50;;;2.37;;
2031;SDS011;27625;50.422;7.944;2023-03-26T11:36:52;3.50;;;2.70;;
2031;SDS011;27625;50.422;7.944;2023-03-26T11:39:25;6.10;;;4.50;;
2031;SDS011;27625;50.422;7.944;2023-03-26T11:42:06;4.93;;;2.60;;
2031;SDS011;27625;50.422;7.944;2023-03-26T11:44:42;4.40;;;2.17;;
2031;SDS011;27625;50.422;7.944;2023-03-26T11:47:17;5.33;;;2.63;;
2031;SDS011;27625;50.422;7.944;2023-03-26T11:49:48;4.73;;;2.17;;
2031;SDS011;27625;50.422;7.944;2023-03-26T11:52:17;4.60;;;2.20;;
2031;SDS011;27625;50.422;7.944;2023-03-26T11:54:50;5.97;;;2.50;;
2031;SDS011;27625;50.422;7.944;2023-03-26T11:57:20;4.90;;;2.20;;
2031;SDS011;27625;50.422;7.944;2023-03-26T11:59:51;4.47;;;2.60;;
2031;SDS011;27625;50.422;7.944;2023-03-26T12:02:24;6.67;;;2.43;;
2031;SDS011;27625;50.422;7.944;2023-03-26T12:05:17;3.60;;;2.40;;
2031;SDS011;27625;50.422;7.944;2023-03-26T12:07:46;4.73;;;2.50;;
2031;SDS011;27625;50.422;7.944;2023-03-26T12:10:20;4.37;;;2.30;;
2031;SDS011;27625;50.422;7.944;2023-03-26T12:12:52;4.17;;;2.10;;
2031;SDS011;27625;50.422;7.944;2023-03-26T12:15:21;3.63;;;2.27;;
2031;SDS011;27625;50.422;7.944;2023-03-26T12:17:51;6.93;;;4.40;;
2031;SDS011;27625;50.422;7.944;2023-03-26T12:20:23;3.60;;;2.37;;
2031;SDS011;27625;50.422;7.944;2023-03-26T12:22:59;3.90;;;2.60;;
2031;SDS011;27625;50.422;7.944;2023-03-26T12:25:35;4.90;;;2.50;;
2031;SDS011;27625;50.422;7.944;2023-03-26T12:28:16;8.23;;;2.57;;
2031;SDS011;27625;50.422;7.944;2023-03-26T12:30:50;3.27;;;2.07;;
2031;SDS011;27625;50.422;7.944;2023-03-26T12:33:18;3.43;;;2.10;;
2031;SDS011;27625;50.422;7.944;2023-03-26T12:35:55;3.13;;;1.73;;
2031;SDS011;27625;50.422;7.944;2023-03-26T12:38:23;2.70;;;1.70;;
2031;SDS011;27625;50.422;7.944;2023-03-26T12:41:07;2.90;;;1.73;;
2031;SDS011;27625;50.422;7.944;2023-03-26T12:43:38;3.67;;;1.80;;
2031;SDS011;27625;50.422;7.944;2023-03-26T12:48:57;2.87;;;1.50;;
2031;SDS011;27625;50.422;7.944;2023-03-26T12:51:30;3.20;;;1.63;;
2031;SDS011;27625;50.422;7.944;2023-03-26T12:54:18;3.10;;;1.50;;
2031;SDS011;27625;50.422;7.944;2023-03-26T12:56:51;4.80;;;2.43;;
2031;SDS011;27625;50.422;7.944;2023-03-26T12:59:34;3.00;;;1.80;;
2031;SDS011;27625;50.422;7.944;2023-03-26T13:02:18;4.83;;;1.60;;
2031;SDS011;27625;50.422;7.944;2023-03-26T13:04:59;3.70;;;1.37;;
2031;SDS011;27625;50.422;7.944;2023-03-26T13:07:38;4.00;;;1.67;;
2031;SDS011;27625;50.422;7.944;2023-03-26T13:10:22;4.80;;;1.37;;
2031;SDS011;27625;50.422;7.944;2023-03-26T13:13:00;4.30;;;2.03;;
2031;SDS011;27625;50.422;7.944;2023-03-26T13:15:39;3.67;;;1.60;;
2031;SDS011;27625;50.422;7.944;2023-03-26T13:18:14;4.73;;;2.77;;
2031;SDS011;27625;50.422;7.944;2023-03-26T13:20:52;3.60;;;1.70;;
2031;SDS011;27625;50.422;7.944;2023-03-26T13:23:28;6.90;;;1.83;;
2031;SDS011;27625;50.422;7.944;2023-03-26T13:26:00;3.40;;;1.60;;
2031;SDS011;27625;50.422;7.944;2023-03-26T13:28:34;3.20;;;1.27;;
2031;SDS011;27625;50.422;7.944;2023-03-26T13:31:08;4.30;;;1.43;;
2031;SDS011;27625;50.422;7.944;2023-03-26T13:33:42;4.43;;;1.70;;
2031;SDS011;27625;50.422;7.944;2023-03-26T13:36:20;3.77;;;1.53;;
2031;SDS011;27625;50.422;7.944;2023-03-26T13:38:55;2.90;;;1.57;;
2031;SDS011;27625;50.422;7.944;2023-03-26T13:41:36;3.80;;;2.13;;
2031;SDS011;27625;50.422;7.944;2023-03-26T13:44:10;3.33;;;1.63;;
2031;SDS011;27625;50.422;7.944;2023-03-26T13:46:45;3.60;;;1.53;;
2031;SDS011;27625;50.422;7.944;2023-03-26T13:49:14;3.10;;;1.50;;
2031;SDS011;27625;50.422;7.944;2023-03-26T13:51:42;2.93;;;1.30;;
2031;SDS011;27625;50.422;7.944;2023-03-26T13:54:14;2.60;;;1.37;;
2031;SDS011;27625;50.422;7.944;2023-03-26T13:56:46;6.47;;;1.60;;
2031;SDS011;27625;50.422;7.944;2023-03-26T13:59:16;2.07;;;1.20;;
2031;SDS011;27625;50.422;7.944;2023-03-26T14:01:48;2.20;;;1.20;;
2031;SDS011;27625;50.422;7.944;2023-03-26T14:04:20;2.10;;;1.20;;
2031;SDS011;27625;50.422;7.944;2023-03-26T14:06:49;3.13;;;1.67;;
2031;SDS011;27625;50.422;7.944;2023-03-26T14:09:24;3.37;;;1.87;;
2031;SDS011;27625;50.422;7.944;2023-03-26T14:12:03;2.30;;;1.57;;
2031;SDS011;27625;50.422;7.944;2023-03-26T14:14:42;2.53;;;1.57;;
2031;SDS011;27625;50.422;7.944;2023-03-26T14:17:16;4.40;;;2.07;;
2031;SDS011;27625;50.422;7.944;2023-03-26T14:19:51;3.73;;;1.60;;
2031;SDS011;27625;50.422;7.944;2023-03-26T14:22:41;2.87;;;1.43;;
2031;SDS011;27625;50.422;7.944;2023-03-26T14:25:18;2.80;;;1.33;;
2031;SDS011;27625;50.422;7.944;2023-03-26T14:33:49;2.50;;;1.60;;
2031;SDS011;27625;50.422;7.944;2023-03-26T14:36:24;2.97;;;2.03;;
2031;SDS011;27625;50.422;7.944;2023-03-26T14:39:08;3.53;;;2.40;;
2031;SDS011;27625;50.422;7.944;2023-03-26T14:41:57;3.43;;;2.17;;
2031;SDS011;27625;50.422;7.944;2023-03-26T14:47:32;3.77;;;2.20;;
2031;SDS011;27625;50.422;7.944;2023-03-26T14:53:12;3.63;;;2.70;;
2031;SDS011;27625;50.422;7.944;2023-03-26T14:55:50;5.27;;;2.90;;
2031;SDS011;27625;50.422;7.944;2023-03-26T14:58:48;4.60;;;3.60;;
2031;SDS011;27625;50.422;7.944;2023-03-26T15:01:28;4.27;;;3.17;;
2031;SDS011;27625;50.422;7.944;2023-03-26T15:07:21;3.03;;;1.30;;
2031;SDS011;27625;50.422;7.944;2023-03-26T15:12:53;2.50;;;1.40;;
2031;SDS011;27625;50.422;7.944;2023-03-26T15:21:59;2.30;;;1.47;;
2031;SDS011;27625;50.422;7.944;2023-03-26T15:28:04;4.20;;;2.00;;
2031;SDS011;27625;50.422;7.944;2023-03-26T15:30:58;2.40;;;1.60;;
2031;SDS011;27625;50.422;7.944;2023-03-26T15:33:52;7.90;;;4.93;;
2031;SDS011;27625;50.422;7.944;2023-03-26T15:36:51;6.80;;;5.30;;
2031;SDS011;27625;50.422;7.944;2023-03-26T15:39:34;6.33;;;3.80;;
2031;SDS011;27625;50.422;7.944;2023-03-26T15:42:24;7.23;;;2.80;;
2031;SDS011;27625;50.422;7.944;2023-03-26T15:45:00;3.77;;;2.57;;
2031;SDS011;27625;50.422;7.944;2023-03-26T15:47:53;5.40;;;3.73;;
2031;SDS011;27625;50.422;7.944;2023-03-26T15:50:28;5.30;;;3.37;;
2031;SDS011;27625;50.422;7.944;2023-03-26T15:53:01;4.80;;;3.43;;
2031;SDS011;27625;50.422;7.944;2023-03-26T15:55:37;4.67;;;3.50;;
2031;SDS011;27625;50.422;7.944;2023-03-26T15:58:10;5.17;;;3.40;;
2031;SDS011;27625;50.422;7.944;2023-03-26T16:00:42;4.70;;;2.93;;
2031;SDS011;27625;50.422;7.944;2023-03-26T16:03:23;4.83;;;2.60;;
2031;SDS011;27625;50.422;7.944;2023-03-26T16:06:14;5.60;;;3.20;;
2031;SDS011;27625;50.422;7.944;2023-03-26T16:09:03;9.20;;;4.30;;
2031;SDS011;27625;50.422;7.944;2023-03-26T16:11:51;13.80;;;5.70;;
2031;SDS011;27625;50.422;7.944;2023-03-26T16:14:23;10.33;;;6.13;;
2031;SDS011;27625;50.422;7.944;2023-03-26T16:17:11;10.40;;;6.50;;
2031;SDS011;27625;50.422;7.944;2023-03-26T16:19:48;5.97;;;3.83;;
2031;SDS011;27625;50.422;7.944;2023-03-26T16:25:23;2.90;;;1.93;;
2031;SDS011;27625;50.422;7.944;2023-03-26T16:33:46;4.53;;;2.40;;
2031;SDS011;27625;50.422;7.944;2023-03-26T16:36:23;3.40;;;2.40;;
2031;SDS011;27625;50.422;7.944;2023-03-26T16:39:14;3.23;;;2.60;;
2031;SDS011;27625;50.422;7.944;2023-03-26T16:41:51;3.23;;;2.70;;
2031;SDS011;27625;50.422;7.944;2023-03-26T16:44:25;3.40;;;2.60;;
2031;SDS011;27625;50.422;7.944;2023-03-26T16:47:02;5.43;;;3.33;;
2031;SDS011;27625;50.422;7.944;2023-03-26T16:49:39;4.00;;;2.50;;
2031;SDS011;27625;50.422;7.944;2023-03-26T16:52:22;5.03;;;4.53;;
2031;SDS011;27625;50.422;7.944;2023-03-26T16:55:00;4.73;;;3.97;;
2031;SDS011;27625;50.422;7.944;2023-03-26T16:57:35;5.13;;;3.30;;
2031;SDS011;27625;50.422;7.944;2023-03-26T17:03:00;3.43;;;2.67;;
2031;SDS011;27625;50.422;7.944;2023-03-26T17:05:35;5.40;;;4.13;;
2031;SDS011;27625;50.422;7.944;2023-03-26T17:08:06;4.43;;;3.50;;
2031;SDS011;27625;50.422;7.944;2023-03-26T17:10:44;4.00;;;3.20;;
2031;SDS011;27625;50.422;7.944;2023-03-26T17:13:20;3.23;;;2.63;;
2031;SDS011;27625;50.422;7.944;2023-03-26T17:15:52;2.97;;;2.50;;
2031;SDS011;27625;50.422;7.944;2023-03-26T17:18:35;4.70;;;3.47;;
2031;SDS011;27625;50.422;7.944;2023-03-26T17:21:14;4.30;;;3.40;;
2031;SDS011;27625;50.422;7.944;2023-03-26T17:26:42;4.60;;;3.43;;
2031;SDS011;27625;50.422;7.944;2023-03-26T17:29:26;3.33;;;2.80;;
2031;SDS011;27625;50.422;7.944;2023-03-26T17:31:58;4.50;;;3.50;;
2031;SDS011;27625;50.422;7.944;2023-03-26T17:37:31;5.77;;;3.20;;
2031;SDS011;27625;50.422;7.944;2023-03-26T17:46:26;6.40;;;5.07;;
2031;SDS011;27625;50.422;7.944;2023-03-26T17:48:59;5.43;;;3.70;;
2031;SDS011;27625;50.422;7.944;2023-03-26T17:51:39;4.60;;;3.70;;
2031;SDS011;27625;50.422;7.944;2023-03-26T17:54:18;3.83;;;3.30;;
2031;SDS011;27625;50.422;7.944;2023-03-26T17:59:23;5.70;;;5.10;;
2031;SDS011;27625;50.422;7.944;2023-03-26T18:01:54;5.10;;;4.40;;
2031;SDS011;27625;50.422;7.944;2023-03-26T18:04:25;6.10;;;4.17;;
2031;SDS011;27625;50.422;7.944;2023-03-26T18:07:00;4.70;;;3.70;;
2031;SDS011;27625;50.422;7.944;2023-03-26T18:09:51;4.40;;;3.27;;
2031;SDS011;27625;50.422;7.944;2023-03-26T18:12:28;4.07;;;3.53;;
2031;SDS011;27625;50.422;7.944;2023-03-26T18:15:08;5.73;;;3.40;;